createdAt,value
2018-02-04T00:00:12.015Z,953.74
2018-02-04T00:01:11.930Z,953.75
2018-02-04T00:03:04.713Z,953.78
2018-02-04T00:04:04.628Z,953.76
2018-02-04T00:05:57.392Z,953.75
2018-02-04T00:06:57.324Z,953.81
2018-02-04T00:08:50.108Z,953.87
2018-02-04T00:09:50.020Z,953.84
2018-02-04T00:11:42.785Z,953.87
2018-02-04T00:12:42.720Z,953.87
2018-02-04T00:14:35.501Z,953.85
2018-02-04T00:15:35.416Z,953.88
2018-02-04T00:17:28.176Z,953.86
2018-02-04T00:18:28.110Z,953.87
2018-02-04T00:20:20.894Z,953.89
2018-02-04T00:21:20.810Z,953.88
2018-02-04T00:23:13.570Z,953.90
2018-02-04T00:24:13.506Z,953.87
2018-02-04T00:26:06.296Z,953.88
2018-02-04T00:27:06.208Z,953.88
2018-02-04T00:28:58.970Z,953.80
2018-02-04T00:29:58.907Z,953.84
2018-02-04T00:31:51.688Z,953.83
2018-02-04T00:32:51.602Z,953.80
2018-02-04T00:34:44.388Z,953.82
2018-02-04T00:35:44.300Z,953.79
2018-02-04T00:37:37.085Z,953.84
2018-02-04T00:38:36.998Z,953.86
2018-02-04T00:40:29.762Z,953.90
2018-02-04T00:41:29.700Z,953.88
2018-02-04T00:43:22.482Z,953.84
2018-02-04T00:44:22.396Z,953.88
2018-02-04T00:46:15.158Z,953.94
2018-02-04T00:47:15.101Z,953.94
2018-02-04T00:49:07.877Z,953.96
2018-02-04T00:50:07.792Z,953.96
2018-02-04T00:52:00.576Z,953.96
2018-02-04T00:53:00.520Z,953.96
2018-02-04T00:54:53.271Z,953.94
2018-02-04T00:55:53.186Z,953.98
2018-02-04T00:57:45.949Z,953.97
2018-02-04T00:58:45.886Z,954.00
2018-02-04T01:00:38.668Z,953.98
2018-02-04T01:01:38.580Z,954.00
2018-02-04T01:03:31.342Z,954.01
2018-02-04T01:04:31.278Z,954.03
2018-02-04T01:06:24.059Z,954.08
2018-02-04T01:07:23.977Z,954.03
2018-02-04T01:09:16.759Z,954.04
2018-02-04T01:10:16.673Z,954.06
2018-02-04T01:12:09.455Z,954.12
2018-02-04T01:13:09.373Z,954.12
2018-02-04T01:15:02.128Z,954.09
2018-02-04T01:16:02.064Z,954.12
2018-02-04T01:17:54.847Z,954.16
2018-02-04T01:18:54.762Z,954.17
2018-02-04T01:20:47.537Z,954.19
2018-02-04T01:21:47.475Z,954.23
2018-02-04T01:23:40.254Z,954.25
2018-02-04T01:24:40.168Z,954.27
2018-02-04T01:26:32.950Z,954.28
2018-02-04T01:27:32.866Z,954.30
2018-02-04T01:29:25.649Z,954.28
2018-02-04T01:30:25.558Z,954.27
2018-02-04T01:32:18.320Z,954.35
2018-02-04T01:33:18.255Z,954.30
2018-02-04T01:35:11.037Z,954.36
2018-02-04T01:36:10.954Z,954.37
2018-02-04T01:38:03.713Z,954.33
2018-02-04T01:39:03.647Z,954.39
2018-02-04T01:40:56.429Z,954.38
2018-02-04T01:41:56.344Z,954.37
2018-02-04T01:43:49.127Z,954.37
2018-02-04T01:44:49.041Z,954.35
2018-02-04T01:46:41.820Z,954.35
2018-02-04T01:47:41.736Z,954.34
2018-02-04T01:49:34.518Z,954.36
2018-02-04T01:50:34.433Z,954.37
2018-02-04T01:52:27.217Z,954.36
2018-02-04T01:53:27.133Z,954.37
2018-02-04T01:55:19.889Z,954.40
2018-02-04T01:56:19.827Z,954.38
2018-02-04T01:58:12.611Z,954.41
2018-02-04T01:59:12.524Z,954.38
2018-02-04T02:01:05.305Z,954.40
2018-02-04T02:02:05.219Z,954.45
2018-02-04T02:03:58.000Z,954.44
2018-02-04T02:04:57.914Z,954.43
2018-02-04T02:06:50.695Z,954.41
2018-02-04T02:07:50.609Z,954.45
2018-02-04T02:09:43.392Z,954.44
2018-02-04T02:10:43.307Z,954.45
2018-02-04T02:12:36.067Z,954.41
2018-02-04T02:13:36.004Z,954.41
2018-02-04T02:15:28.844Z,954.48
2018-02-04T02:16:28.712Z,954.47
2018-02-04T02:18:21.495Z,954.53
2018-02-04T02:19:21.408Z,954.49
2018-02-04T02:21:14.193Z,954.54
2018-02-04T02:22:14.107Z,954.57
2018-02-04T02:24:06.889Z,954.57
2018-02-04T02:25:06.804Z,954.58
2018-02-04T02:26:59.589Z,954.60
2018-02-04T02:27:59.501Z,954.57
2018-02-04T02:29:52.261Z,954.60
2018-02-04T02:30:52.197Z,954.59
2018-02-04T02:32:44.980Z,954.58
2018-02-04T02:33:44.893Z,954.60
2018-02-04T02:35:37.676Z,954.65
2018-02-04T02:36:37.591Z,954.64
2018-02-04T02:38:30.369Z,954.67
2018-02-04T02:39:30.286Z,954.69
2018-02-04T02:41:23.067Z,954.68
2018-02-04T02:42:22.983Z,954.67
2018-02-04T02:44:15.766Z,954.68
2018-02-04T02:45:15.678Z,954.73
2018-02-04T02:47:08.441Z,954.71
2018-02-04T02:48:08.377Z,954.73
2018-02-04T02:50:01.160Z,954.75
2018-02-04T02:51:01.076Z,954.68
2018-02-04T02:52:53.855Z,954.69
2018-02-04T02:53:53.773Z,954.71
2018-02-04T02:55:46.552Z,954.76
2018-02-04T02:56:46.465Z,954.74
2018-02-04T02:58:39.248Z,954.80
2018-02-04T02:59:39.162Z,954.77
2018-02-04T03:01:31.941Z,954.81
2018-02-04T03:02:31.857Z,954.82
2018-02-04T03:04:24.618Z,954.85
2018-02-04T03:05:24.553Z,954.84
2018-02-04T03:07:17.334Z,954.90
2018-02-04T03:08:17.251Z,954.88
2018-02-04T03:10:10.097Z,954.88
2018-02-04T03:11:09.955Z,954.86
2018-02-04T03:13:02.739Z,954.90
2018-02-04T03:14:02.652Z,954.88
2018-02-04T03:15:55.434Z,954.92
2018-02-04T03:16:55.348Z,954.90
2018-02-04T03:18:48.133Z,954.91
2018-02-04T03:19:48.049Z,954.93
2018-02-04T03:21:40.806Z,954.93
2018-02-04T03:22:40.742Z,954.94
2018-02-04T03:24:33.523Z,954.95
2018-02-04T03:25:33.439Z,954.97
2018-02-04T03:27:26.223Z,955.01
2018-02-04T03:28:26.138Z,954.98
2018-02-04T03:30:18.926Z,955.00
2018-02-04T03:31:18.830Z,955.01
2018-02-04T03:33:11.614Z,955.09
2018-02-04T03:34:11.528Z,954.99
2018-02-04T03:36:04.315Z,955.06
2018-02-04T03:37:04.223Z,955.07
2018-02-04T03:38:56.985Z,955.05
2018-02-04T03:39:56.945Z,955.04
2018-02-04T03:41:49.702Z,955.05
2018-02-04T03:42:49.618Z,955.06
2018-02-04T03:44:42.402Z,955.08
2018-02-04T03:45:42.314Z,955.09
2018-02-04T03:47:35.106Z,955.12
2018-02-04T03:48:35.018Z,955.09
2018-02-04T03:50:27.800Z,955.14
2018-02-04T03:51:27.716Z,955.15
2018-02-04T03:53:20.495Z,955.15
2018-02-04T03:54:20.409Z,955.16
2018-02-04T03:56:13.169Z,955.18
2018-02-04T03:57:13.105Z,955.14
2018-02-04T03:59:05.889Z,955.18
2018-02-04T04:00:05.802Z,955.19
2018-02-04T04:01:58.584Z,955.25
2018-02-04T04:02:58.499Z,955.24
2018-02-04T04:04:51.279Z,955.25
2018-02-04T04:05:51.195Z,955.27
2018-02-04T04:07:43.978Z,955.25
2018-02-04T04:08:43.890Z,955.30
2018-02-04T04:10:36.673Z,955.30
2018-02-04T04:11:36.586Z,955.32
2018-02-04T04:13:29.347Z,955.36
2018-02-04T04:14:29.284Z,955.34
2018-02-04T04:16:22.064Z,955.34
2018-02-04T04:17:21.981Z,955.38
2018-02-04T04:19:14.740Z,955.36
2018-02-04T04:20:14.675Z,955.37
2018-02-04T04:22:07.457Z,955.38
2018-02-04T04:23:07.372Z,955.36
2018-02-04T04:25:00.153Z,955.40
2018-02-04T04:26:00.070Z,955.39
2018-02-04T04:27:52.850Z,955.40
2018-02-04T04:28:52.766Z,955.43
2018-02-04T04:30:45.527Z,955.38
2018-02-04T04:31:45.463Z,955.39
2018-02-04T04:33:38.248Z,955.43
2018-02-04T04:34:38.165Z,955.43
2018-02-04T04:36:30.945Z,955.43
2018-02-04T04:37:30.862Z,955.48
2018-02-04T04:39:23.644Z,955.45
2018-02-04T04:40:23.558Z,955.46
2018-02-04T04:42:16.338Z,955.45
2018-02-04T04:43:16.253Z,955.44
2018-02-04T04:45:09.037Z,955.46
2018-02-04T04:46:08.952Z,955.48
2018-02-04T04:48:01.711Z,955.47
2018-02-04T04:49:01.647Z,955.48
2018-02-04T04:50:54.427Z,955.53
2018-02-04T04:51:54.342Z,955.56
2018-02-04T04:53:47.124Z,955.56
2018-02-04T04:54:47.037Z,955.58
2018-02-04T04:56:39.820Z,955.56
2018-02-04T04:57:39.734Z,955.55
2018-02-04T04:59:32.515Z,955.57
2018-02-04T05:00:32.430Z,955.54
2018-02-04T05:02:25.213Z,955.53
2018-02-04T05:03:25.128Z,955.57
2018-02-04T05:05:17.891Z,955.60
2018-02-04T05:06:17.824Z,955.61
2018-02-04T05:08:10.610Z,955.63
2018-02-04T05:09:10.526Z,955.63
2018-02-04T05:11:03.312Z,955.64
2018-02-04T05:12:03.228Z,955.63
2018-02-04T05:13:56.005Z,955.65
2018-02-04T05:14:55.919Z,955.64
2018-02-04T05:16:48.700Z,955.66
2018-02-04T05:17:48.614Z,955.67
2018-02-04T05:19:41.396Z,955.66
2018-02-04T05:20:41.312Z,955.66
2018-02-04T05:22:34.073Z,955.67
2018-02-04T05:23:34.007Z,955.68
2018-02-04T05:25:26.795Z,955.68
2018-02-04T05:26:26.708Z,955.63
2018-02-04T05:28:19.489Z,955.68
2018-02-04T05:29:19.402Z,955.69
2018-02-04T05:31:12.183Z,955.70
2018-02-04T05:32:12.099Z,955.73
2018-02-04T05:34:04.884Z,955.75
2018-02-04T05:35:04.795Z,955.77
2018-02-04T05:36:57.579Z,955.81
2018-02-04T05:37:57.492Z,955.81
2018-02-04T05:39:50.256Z,955.85
2018-02-04T05:40:50.191Z,955.88
2018-02-04T05:42:42.972Z,955.90
2018-02-04T05:43:42.891Z,955.90
2018-02-04T05:45:35.670Z,955.95
2018-02-04T05:46:35.587Z,955.93
2018-02-04T05:48:28.366Z,956.02
2018-02-04T05:49:28.280Z,956.03
2018-02-04T05:51:21.061Z,956.09
2018-02-04T05:52:20.976Z,956.10
2018-02-04T05:54:13.758Z,956.17
2018-02-04T05:55:13.673Z,956.18
2018-02-04T05:57:06.454Z,956.24
2018-02-04T05:58:06.368Z,956.24
2018-02-04T05:59:59.149Z,956.28
2018-02-04T06:00:59.063Z,956.31
2018-02-04T06:02:51.824Z,956.34
2018-02-04T06:03:51.760Z,956.37
2018-02-04T06:05:44.544Z,956.39
2018-02-04T06:06:44.459Z,956.41
2018-02-04T06:08:37.241Z,956.44
2018-02-04T06:09:37.155Z,956.45
2018-02-04T06:11:29.939Z,956.52
2018-02-04T06:12:29.852Z,956.51
2018-02-04T06:14:22.635Z,956.53
2018-02-04T06:15:22.551Z,956.58
2018-02-04T06:17:15.333Z,956.59
2018-02-04T06:18:15.248Z,956.60
2018-02-04T06:20:08.011Z,956.60
2018-02-04T06:21:07.942Z,956.66
2018-02-04T06:23:00.724Z,956.69
2018-02-04T06:24:00.639Z,956.68
2018-02-04T06:25:53.429Z,956.76
2018-02-04T06:26:53.334Z,956.74
2018-02-04T06:28:46.119Z,956.78
2018-02-04T06:29:46.033Z,956.80
2018-02-04T06:31:38.815Z,956.82
2018-02-04T06:32:38.728Z,956.81
2018-02-04T06:34:31.512Z,956.85
2018-02-04T06:35:31.427Z,956.84
2018-02-04T06:37:24.187Z,956.88
2018-02-04T06:38:24.122Z,956.91
2018-02-04T06:40:16.904Z,956.96
2018-02-04T06:41:16.817Z,956.96
2018-02-04T06:43:09.598Z,956.97
2018-02-04T06:44:09.511Z,957.00
2018-02-04T06:46:02.297Z,957.05
2018-02-04T06:47:02.210Z,957.02
2018-02-04T06:48:54.991Z,957.05
2018-02-04T06:49:54.905Z,957.12
2018-02-04T06:51:48.287Z,957.13
2018-02-04T06:52:48.003Z,957.12
2018-02-04T06:54:40.558Z,957.13
2018-02-04T06:55:40.493Z,957.17
2018-02-04T06:57:33.273Z,957.20
2018-02-04T06:58:33.187Z,957.21
2018-02-04T07:00:25.949Z,957.27
2018-02-04T07:01:25.885Z,957.29
2018-02-04T07:03:18.665Z,957.29
2018-02-04T07:04:18.579Z,957.30
2018-02-04T07:06:11.361Z,957.31
2018-02-04T07:07:11.276Z,957.35
2018-02-04T07:09:04.062Z,957.36
2018-02-04T07:10:03.976Z,957.38
2018-02-04T07:11:56.735Z,957.42
2018-02-04T07:12:56.670Z,957.37
2018-02-04T07:14:49.454Z,957.44
2018-02-04T07:15:49.368Z,957.44
2018-02-04T07:17:42.131Z,957.43
2018-02-04T07:18:42.066Z,957.43
2018-02-04T07:20:34.849Z,957.43
2018-02-04T07:21:34.796Z,957.44
2018-02-04T07:23:27.584Z,957.45
2018-02-04T07:24:27.454Z,957.51
2018-02-04T07:26:20.239Z,957.52
2018-02-04T07:27:20.154Z,957.50
2018-02-04T07:29:12.916Z,957.53
2018-02-04T07:30:12.850Z,957.52
2018-02-04T07:32:05.632Z,957.55
2018-02-04T07:33:05.547Z,957.55
2018-02-04T07:34:58.305Z,957.58
2018-02-04T07:35:58.240Z,957.58
2018-02-04T07:37:51.024Z,957.61
2018-02-04T07:38:50.938Z,957.59
2018-02-04T07:40:43.743Z,957.67
2018-02-04T07:41:43.634Z,957.66
2018-02-04T07:43:36.417Z,957.67
2018-02-04T07:44:36.331Z,957.67
2018-02-04T07:46:29.112Z,957.70
2018-02-04T07:47:29.028Z,957.68
2018-02-04T07:49:21.792Z,957.67
2018-02-04T07:50:21.726Z,957.69
2018-02-04T07:52:14.508Z,957.72
2018-02-04T07:53:14.419Z,957.71
2018-02-04T07:55:07.208Z,957.73
2018-02-04T07:56:07.116Z,957.73
2018-02-04T07:57:59.901Z,957.79
2018-02-04T07:58:59.816Z,957.79
2018-02-04T08:00:52.595Z,957.82
2018-02-04T08:01:52.513Z,957.84
2018-02-04T08:03:45.291Z,957.86
2018-02-04T08:04:45.206Z,957.85
2018-02-04T08:06:37.966Z,957.91
2018-02-04T08:07:37.903Z,957.91
2018-02-04T08:09:30.686Z,957.97
2018-02-04T08:10:30.601Z,957.98
2018-02-04T08:12:23.381Z,957.98
2018-02-04T08:13:23.297Z,958.00
2018-02-04T08:15:16.081Z,958.04
2018-02-04T08:16:15.995Z,958.04
2018-02-04T08:18:08.776Z,958.04
2018-02-04T08:19:08.694Z,958.06
2018-02-04T08:21:01.477Z,958.07
2018-02-04T08:22:01.390Z,958.07
2018-02-04T08:23:54.152Z,958.11
2018-02-04T08:24:54.090Z,958.13
2018-02-04T08:26:46.868Z,958.15
2018-02-04T08:27:46.783Z,958.12
2018-02-04T08:28:46.722Z,958.13
2018-02-04T08:29:46.712Z,958.16
2018-02-04T08:30:46.602Z,958.20
2018-02-04T08:31:46.541Z,958.19
2018-02-04T08:32:46.480Z,958.21
2018-02-04T08:33:46.421Z,958.23
2018-02-04T08:34:46.360Z,958.24
2018-02-04T08:35:46.299Z,958.30
2018-02-04T08:36:46.238Z,958.28
2018-02-04T08:37:46.179Z,958.22
2018-02-04T08:38:46.118Z,958.26
2018-02-04T08:39:46.056Z,958.28
2018-02-04T08:40:45.996Z,958.29
2018-02-04T08:41:45.938Z,958.26
2018-02-04T08:42:45.875Z,958.27
2018-02-04T08:43:45.815Z,958.25
2018-02-04T08:44:45.755Z,958.27
2018-02-04T08:45:45.695Z,958.31
2018-02-04T08:46:45.633Z,958.33
2018-02-04T08:47:45.576Z,958.35
2018-02-04T08:48:45.516Z,958.33
2018-02-04T08:49:45.453Z,958.36
2018-02-04T08:50:45.395Z,958.41
2018-02-04T08:51:45.338Z,958.36
2018-02-04T08:52:45.277Z,958.39
2018-02-04T08:53:45.217Z,958.41
2018-02-04T08:54:45.152Z,958.45
2018-02-04T08:55:45.092Z,958.43
2018-02-04T08:56:45.033Z,958.45
2018-02-04T08:57:44.972Z,958.49
2018-02-04T08:58:44.912Z,958.51
2018-02-04T08:59:44.851Z,958.55
2018-02-04T09:00:44.792Z,958.55
2018-02-04T09:01:44.731Z,958.54
2018-02-04T09:02:44.670Z,958.59
2018-02-04T09:03:44.610Z,958.60
2018-02-04T09:04:44.551Z,958.58
2018-02-04T09:05:44.492Z,958.64
2018-02-04T09:06:44.432Z,958.65
2018-02-04T09:07:44.372Z,958.67
2018-02-04T09:08:44.312Z,958.67
2018-02-04T09:09:44.251Z,958.70
2018-02-04T09:10:44.191Z,958.71
2018-02-04T09:11:44.130Z,958.71
2018-02-04T09:12:44.070Z,958.76
2018-02-04T09:13:44.011Z,958.74
2018-02-04T09:14:43.949Z,958.75
2018-02-04T09:15:43.890Z,958.73
2018-02-04T09:16:43.832Z,958.75
2018-02-04T09:17:43.771Z,958.75
2018-02-04T09:18:43.708Z,958.73
2018-02-04T09:19:43.649Z,958.73
2018-02-04T09:20:43.591Z,958.76
2018-02-04T09:21:43.528Z,958.77
2018-02-04T09:22:43.468Z,958.74
2018-02-04T09:23:43.407Z,958.80
2018-02-04T09:24:43.348Z,958.79
2018-02-04T09:25:43.287Z,958.79
2018-02-04T09:26:43.227Z,958.81
2018-02-04T09:27:43.166Z,958.84
2018-02-04T09:28:43.108Z,958.80
2018-02-04T09:29:43.045Z,958.83
2018-02-04T09:30:42.984Z,958.88
2018-02-04T09:31:42.925Z,958.87
2018-02-04T09:32:42.864Z,958.89
2018-02-04T09:33:42.804Z,958.87
2018-02-04T09:34:42.744Z,958.93
2018-02-04T09:35:42.685Z,958.93
2018-02-04T09:36:42.622Z,958.93
2018-02-04T09:37:42.562Z,958.95
2018-02-04T09:38:42.500Z,958.96
2018-02-04T09:39:42.441Z,958.97
2018-02-04T09:40:42.384Z,958.97
2018-02-04T09:41:42.322Z,959.01
2018-02-04T09:42:42.262Z,959.05
2018-02-04T09:43:42.200Z,959.05
2018-02-04T09:44:42.141Z,959.06
2018-02-04T09:45:42.081Z,959.01
2018-02-04T09:46:42.021Z,959.06
2018-02-04T09:47:41.961Z,959.06
2018-02-04T09:48:41.900Z,959.07
2018-02-04T09:49:41.841Z,959.10
2018-02-04T09:50:41.783Z,959.11
2018-02-04T09:51:41.718Z,959.06
2018-02-04T09:52:41.657Z,959.13
2018-02-04T09:53:41.599Z,959.13
2018-02-04T09:54:41.538Z,959.14
2018-02-04T09:55:41.478Z,959.17
2018-02-04T09:56:41.424Z,959.19
2018-02-04T09:57:41.357Z,959.22
2018-02-04T09:58:41.321Z,959.21
2018-02-04T09:59:41.238Z,959.23
2018-02-04T10:00:41.177Z,959.26
2018-02-04T10:01:41.118Z,959.27
2018-02-04T10:02:41.057Z,959.30
2018-02-04T10:03:40.995Z,959.30
2018-02-04T10:04:40.937Z,959.31
2018-02-04T10:05:40.876Z,959.31
2018-02-04T10:06:40.817Z,959.31
2018-02-04T10:07:40.755Z,959.30
2018-02-04T10:08:40.695Z,959.31
2018-02-04T10:09:40.636Z,959.30
2018-02-04T10:10:40.575Z,959.31
2018-02-04T10:11:40.516Z,959.31
2018-02-04T10:12:40.455Z,959.35
2018-02-04T10:13:40.394Z,959.40
2018-02-04T10:14:40.334Z,959.38
2018-02-04T10:15:40.274Z,959.34
2018-02-04T10:16:40.217Z,959.37
2018-02-04T10:17:40.157Z,959.34
2018-02-04T10:18:40.093Z,959.35
2018-02-04T10:19:40.038Z,959.34
2018-02-04T10:20:39.975Z,959.31
2018-02-04T10:21:39.915Z,959.33
2018-02-04T10:22:39.853Z,959.35
2018-02-04T10:23:39.793Z,959.36
2018-02-04T10:24:39.733Z,959.38
2018-02-04T10:25:39.674Z,959.36
2018-02-04T10:26:39.615Z,959.36
2018-02-04T10:27:39.553Z,959.36
2018-02-04T10:28:39.495Z,959.36
2018-02-04T10:29:39.434Z,959.40
2018-02-04T10:30:39.426Z,959.40
2018-02-04T10:31:39.314Z,959.41
2018-02-04T10:32:39.254Z,959.37
2018-02-04T10:33:39.194Z,959.41
2018-02-04T10:34:39.133Z,959.43
2018-02-04T10:35:39.074Z,959.43
2018-02-04T10:36:39.014Z,959.43
2018-02-04T10:37:38.955Z,959.44
2018-02-04T10:38:38.892Z,959.45
2018-02-04T10:39:38.833Z,959.50
2018-02-04T10:40:38.773Z,959.47
2018-02-04T10:41:38.713Z,959.51
2018-02-04T10:42:38.652Z,959.51
2018-02-04T10:43:38.594Z,959.51
2018-02-04T10:44:38.532Z,959.52
2018-02-04T10:45:38.473Z,959.53
2018-02-04T10:46:38.412Z,959.54
2018-02-04T10:47:38.354Z,959.54
2018-02-04T10:48:38.293Z,959.55
2018-02-04T10:49:38.237Z,959.57
2018-02-04T10:50:38.173Z,959.55
2018-02-04T10:51:38.112Z,959.53
2018-02-04T10:52:38.054Z,959.53
2018-02-04T10:53:37.993Z,959.56
2018-02-04T10:54:37.933Z,959.55
2018-02-04T10:55:37.892Z,959.53
2018-02-04T10:56:37.812Z,959.55
2018-02-04T10:57:37.754Z,959.54
2018-02-04T10:58:37.694Z,959.55
2018-02-04T10:59:37.633Z,959.54
2018-02-04T11:00:37.575Z,959.57
2018-02-04T11:01:37.513Z,959.57
2018-02-04T11:02:37.454Z,959.50
2018-02-04T11:03:37.393Z,959.55
2018-02-04T11:04:37.336Z,959.53
2018-02-04T11:05:37.273Z,959.53
2018-02-04T11:06:37.215Z,959.52
2018-02-04T11:07:37.154Z,959.51
2018-02-04T11:08:37.095Z,959.50
2018-02-04T11:09:37.035Z,959.51
2018-02-04T11:10:36.976Z,959.52
2018-02-04T11:11:36.933Z,959.54
2018-02-04T11:12:36.856Z,959.54
2018-02-04T11:13:36.798Z,959.54
2018-02-04T11:14:36.737Z,959.53
2018-02-04T11:15:36.678Z,959.53
2018-02-04T11:16:36.620Z,959.52
2018-02-04T11:17:36.562Z,959.52
2018-02-04T11:18:36.499Z,959.51
2018-02-04T11:19:36.443Z,959.55
2018-02-04T11:20:36.380Z,959.57
2018-02-04T11:21:36.321Z,959.60
2018-02-04T11:22:36.260Z,959.56
2018-02-04T11:23:36.199Z,959.59
2018-02-04T11:24:36.141Z,959.60
2018-02-04T11:25:36.084Z,959.60
2018-02-04T11:26:36.022Z,959.57
2018-02-04T11:27:35.962Z,959.60
2018-02-04T11:28:35.903Z,959.58
2018-02-04T11:29:35.844Z,959.56
2018-02-04T11:30:35.783Z,959.57
2018-02-04T11:31:35.723Z,959.57
2018-02-04T11:32:35.665Z,959.54
2018-02-04T11:33:35.604Z,959.56
2018-02-04T11:34:35.545Z,959.54
2018-02-04T11:35:35.485Z,959.55
2018-02-04T11:36:35.426Z,959.54
2018-02-04T11:37:35.367Z,959.57
2018-02-04T11:38:35.307Z,959.55
2018-02-04T11:39:35.246Z,959.58
2018-02-04T11:40:35.188Z,959.56
2018-02-04T11:41:35.129Z,959.53
2018-02-04T11:42:35.067Z,959.55
2018-02-04T11:43:35.009Z,959.53
2018-02-04T11:44:34.949Z,959.56
2018-02-04T11:45:34.891Z,959.55
2018-02-04T11:46:34.860Z,959.52
2018-02-04T11:47:34.773Z,959.52
2018-02-04T11:48:34.712Z,959.52
2018-02-04T11:49:34.652Z,959.50
2018-02-04T11:50:34.593Z,959.49
2018-02-04T11:51:34.533Z,959.49
2018-02-04T11:52:34.475Z,959.53
2018-02-04T11:53:34.417Z,959.47
2018-02-04T11:54:34.355Z,959.50
2018-02-04T11:55:34.298Z,959.53
2018-02-04T11:56:34.238Z,959.55
2018-02-04T11:57:34.180Z,959.53
2018-02-04T11:58:34.119Z,959.55
2018-02-04T11:59:34.061Z,959.57
2018-02-04T12:00:34.002Z,959.60
2018-02-04T12:01:33.942Z,959.57
2018-02-04T12:02:33.883Z,959.57
2018-02-04T12:03:33.823Z,959.60
2018-02-04T12:04:33.765Z,959.62
2018-02-04T12:05:33.704Z,959.65
2018-02-04T12:06:33.646Z,959.61
2018-02-04T12:07:33.586Z,959.62
2018-02-04T12:08:33.529Z,959.63
2018-02-04T12:09:33.468Z,959.65
2018-02-04T12:10:33.409Z,959.65
2018-02-04T12:11:33.352Z,959.62
2018-02-04T12:12:33.290Z,959.63
2018-02-04T12:13:33.231Z,959.68
2018-02-04T12:14:33.174Z,959.65
2018-02-04T12:15:33.115Z,959.62
2018-02-04T12:16:33.080Z,959.63
2018-02-04T12:17:32.996Z,959.62
2018-02-04T12:18:32.935Z,959.63
2018-02-04T12:19:32.876Z,959.63
2018-02-04T12:20:32.821Z,959.62
2018-02-04T12:21:32.759Z,959.60
2018-02-04T12:22:32.697Z,959.63
2018-02-04T12:23:32.642Z,959.63
2018-02-04T12:24:32.580Z,959.62
2018-02-04T12:25:32.519Z,959.62
2018-02-04T12:26:32.464Z,959.62
2018-02-04T12:27:32.402Z,959.63
2018-02-04T12:28:32.342Z,959.61
2018-02-04T12:29:32.284Z,959.68
2018-02-04T12:30:32.223Z,959.69
2018-02-04T12:31:32.168Z,959.71
2018-02-04T12:32:32.108Z,959.65
2018-02-04T12:33:32.044Z,959.66
2018-02-04T12:34:31.986Z,959.64
2018-02-04T12:35:31.925Z,959.63
2018-02-04T12:36:31.867Z,959.59
2018-02-04T12:37:31.807Z,959.60
2018-02-04T12:38:31.746Z,959.65
2018-02-04T12:39:31.686Z,959.63
2018-02-04T12:40:31.633Z,959.64
2018-02-04T12:41:31.568Z,959.67
2018-02-04T12:42:31.507Z,959.69
2018-02-04T12:43:31.448Z,959.68
2018-02-04T12:44:31.388Z,959.72
2018-02-04T12:45:31.329Z,959.69
2018-02-04T12:46:31.268Z,959.64
2018-02-04T12:47:31.210Z,959.69
2018-02-04T12:48:31.148Z,959.73
2018-02-04T12:49:31.089Z,959.72
2018-02-04T12:50:31.029Z,959.74
2018-02-04T12:51:30.970Z,959.73
2018-02-04T12:52:30.909Z,959.76
2018-02-04T12:53:30.849Z,959.75
2018-02-04T12:54:30.789Z,959.80
2018-02-04T12:55:30.731Z,959.80
2018-02-04T12:56:30.670Z,959.83
2018-02-04T12:57:30.610Z,959.80
2018-02-04T12:58:30.550Z,959.81
2018-02-04T12:59:30.490Z,959.83
2018-02-04T13:00:30.430Z,959.89
2018-02-04T13:01:30.372Z,959.85
2018-02-04T13:02:30.346Z,959.88
2018-02-04T13:03:30.250Z,959.85
2018-02-04T13:04:30.191Z,959.91
2018-02-04T13:05:30.131Z,959.87
2018-02-04T13:06:30.071Z,959.89
2018-02-04T13:07:30.010Z,959.89
2018-02-04T13:08:29.956Z,959.91
2018-02-04T13:09:29.891Z,959.92
2018-02-04T13:10:29.830Z,959.93
2018-02-04T13:11:29.771Z,959.90
2018-02-04T13:12:29.711Z,959.95
2018-02-04T13:13:29.652Z,959.91
2018-02-04T13:14:29.591Z,959.96
2018-02-04T13:15:29.533Z,959.98
2018-02-04T13:16:29.471Z,959.92
2018-02-04T13:17:29.411Z,959.97
2018-02-04T13:18:29.351Z,959.95
2018-02-04T13:19:29.292Z,959.96
2018-02-04T13:20:29.231Z,959.98
2018-02-04T13:21:29.173Z,959.96
2018-02-04T13:22:29.110Z,959.98
2018-02-04T13:23:29.052Z,959.98
2018-02-04T13:24:28.993Z,959.98
2018-02-04T13:25:28.933Z,960.01
2018-02-04T13:26:28.873Z,960.03
2018-02-04T13:27:28.812Z,960.04
2018-02-04T13:28:28.752Z,960.01
2018-02-04T13:29:28.692Z,960.02
2018-02-04T13:30:28.631Z,960.04
2018-02-04T13:31:28.573Z,960.01
2018-02-04T13:32:28.512Z,960.01
2018-02-04T13:33:28.451Z,959.98
2018-02-04T13:34:28.392Z,960.01
2018-02-04T13:35:28.331Z,960.03
2018-02-04T13:36:28.283Z,959.99
2018-02-04T13:37:28.212Z,960.05
2018-02-04T13:38:28.151Z,960.01
2018-02-04T13:39:28.092Z,959.99
2018-02-04T13:40:28.032Z,960.01
2018-02-04T13:41:27.973Z,960.00
2018-02-04T13:42:27.911Z,960.01
2018-02-04T13:43:27.851Z,960.02
2018-02-04T13:44:27.792Z,959.96
2018-02-04T13:45:27.733Z,959.97
2018-02-04T13:46:27.672Z,960.03
2018-02-04T13:47:27.611Z,960.00
2018-02-04T13:48:27.553Z,959.99
2018-02-04T13:49:27.491Z,960.02
2018-02-04T13:50:27.433Z,960.02
2018-02-04T13:51:27.372Z,959.96
2018-02-04T13:52:27.357Z,959.99
2018-02-04T13:53:27.252Z,959.98
2018-02-04T13:54:27.191Z,960.05
2018-02-04T13:55:27.131Z,960.01
2018-02-04T13:56:27.071Z,960.04
2018-02-04T13:57:27.015Z,960.07
2018-02-04T13:58:26.952Z,960.08
2018-02-04T13:59:26.890Z,960.12
2018-02-04T14:00:26.831Z,960.10
2018-02-04T14:01:26.773Z,960.09
2018-02-04T14:02:26.709Z,960.08
2018-02-04T14:03:26.649Z,960.15
2018-02-04T14:04:26.590Z,960.12
2018-02-04T14:05:26.533Z,960.16
2018-02-04T14:06:26.470Z,960.17
2018-02-04T14:07:26.409Z,960.18
2018-02-04T14:08:26.350Z,960.23
2018-02-04T14:09:26.289Z,960.25
2018-02-04T14:10:26.236Z,960.22
2018-02-04T14:11:26.168Z,960.22
2018-02-04T14:12:26.108Z,960.22
2018-02-04T14:13:26.047Z,960.29
2018-02-04T14:14:25.986Z,960.24
2018-02-04T14:15:25.926Z,960.30
2018-02-04T14:16:25.868Z,960.29
2018-02-04T14:17:25.807Z,960.31
2018-02-04T14:18:25.744Z,960.31
2018-02-04T14:19:25.684Z,960.33
2018-02-04T14:20:25.626Z,960.34
2018-02-04T14:21:25.566Z,960.35
2018-02-04T14:22:25.506Z,960.33
2018-02-04T14:23:25.443Z,960.34
2018-02-04T14:24:25.383Z,960.35
2018-02-04T14:25:25.323Z,960.36
2018-02-04T14:26:25.263Z,960.37
2018-02-04T14:27:25.202Z,960.37
2018-02-04T14:28:25.142Z,960.37
2018-02-04T14:29:25.083Z,960.37
2018-02-04T14:30:25.023Z,960.34
2018-02-04T14:31:24.962Z,960.42
2018-02-04T14:32:24.901Z,960.39
2018-02-04T14:33:24.841Z,960.38
2018-02-04T14:34:24.780Z,960.41
2018-02-04T14:35:24.721Z,960.48
2018-02-04T14:36:24.659Z,960.46
2018-02-04T14:37:24.599Z,960.48
2018-02-04T14:38:24.538Z,960.47
2018-02-04T14:39:24.479Z,960.44
2018-02-04T14:40:24.417Z,960.46
2018-02-04T14:41:24.357Z,960.44
2018-02-04T14:42:24.297Z,960.45
2018-02-04T14:43:24.236Z,960.45
2018-02-04T14:44:24.175Z,960.46
2018-02-04T14:45:24.118Z,960.45
2018-02-04T14:46:24.055Z,960.45
2018-02-04T14:47:23.993Z,960.48
2018-02-04T14:48:23.939Z,960.48
2018-02-04T14:49:23.873Z,960.46
2018-02-04T14:50:23.814Z,960.47
2018-02-04T14:51:23.751Z,960.47
2018-02-04T14:52:23.695Z,960.53
2018-02-04T14:53:23.632Z,960.54
2018-02-04T14:54:23.570Z,960.54
2018-02-04T14:55:23.510Z,960.52
2018-02-04T14:56:23.450Z,960.58
2018-02-04T14:57:23.391Z,960.53
2018-02-04T14:58:23.329Z,960.56
2018-02-04T14:59:23.268Z,960.56
2018-02-04T15:00:23.207Z,960.57
2018-02-04T15:01:23.149Z,960.57
2018-02-04T15:02:23.087Z,960.60